sensor_id;sensor_type;location;lat;lon;timestamp;temperature;humidity
21805;DHT22;11064;47.102;15.452;2023-07-09T05:03:30;28.30;78.90
21805;DHT22;11064;47.102;15.452;2023-07-09T05:05:56;27.90;76.30
21805;DHT22;11064;47.102;15.452;2023-07-09T05:08:21;27.00;79.90
21805;DHT22;11064;47.102;15.452;2023-07-09T05:10:51;26.30;83.50
21805;DHT22;11064;47.102;15.452;2023-07-09T05:13:18;25.20;87.00
21805;DHT22;11064;47.102;15.452;2023-07-09T05:15:46;24.60;91.90
21805;DHT22;11064;47.102;15.452;2023-07-09T05:18:14;24.80;91.30
21805;DHT22;11064;47.102;15.452;2023-07-09T05:20:41;24.70;91.10
21805;DHT22;11064;47.102;15.452;2023-07-09T05:23:09;23.60;93.70
21805;DHT22;11064;47.102;15.452;2023-07-09T05:25:36;22.80;96.60
21805;DHT22;11064;47.102;15.452;2023-07-09T05:28:03;22.40;99.60
21805;DHT22;11064;47.102;15.452;2023-07-09T05:30:29;22.10;99.90
21805;DHT22;11064;47.102;15.452;2023-07-09T05:32:55;22.50;99.90
21805;DHT22;11064;47.102;15.452;2023-07-09T05:35:27;22.90;99.90
21805;DHT22;11064;47.102;15.452;2023-07-09T05:37:54;23.50;99.90
21805;DHT22;11064;47.102;15.452;2023-07-09T05:40:21;24.90;96.80
21805;DHT22;11064;47.102;15.452;2023-07-09T05:42:48;25.60;93.90
21805;DHT22;11064;47.102;15.452;2023-07-09T05:45:14;26.30;91.90
21805;DHT22;11064;47.102;15.452;2023-07-09T05:47:40;27.70;86.70
21805;DHT22;11064;47.102;15.452;2023-07-09T05:50:07;28.00;82.80
21805;DHT22;11064;47.102;15.452;2023-07-09T05:52:33;27.90;82.30
21805;DHT22;11064;47.102;15.452;2023-07-09T05:54:59;27.60;82.20
21805;DHT22;11064;47.102;15.452;2023-07-09T05:57:27;27.10;84.60
21805;DHT22;11064;47.102;15.452;2023-07-09T05:59:53;26.90;85.00
21805;DHT22;11064;47.102;15.452;2023-07-09T06:02:20;27.00;85.20
21805;DHT22;11064;47.102;15.452;2023-07-09T06:04:48;26.70;84.30
21805;DHT22;11064;47.102;15.452;2023-07-09T06:07:17;25.80;88.50
21805;DHT22;11064;47.102;15.452;2023-07-09T06:09:45;24.90;91.60
21805;DHT22;11064;47.102;15.452;2023-07-09T06:12:12;24.30;93.80
21805;DHT22;11064;47.102;15.452;2023-07-09T06:14:38;24.70;93.40
21805;DHT22;11064;47.102;15.452;2023-07-09T06:17:04;25.60;92.30
21805;DHT22;11064;47.102;15.452;2023-07-09T06:19:29;25.60;90.70
21805;DHT22;11064;47.102;15.452;2023-07-09T06:21:55;25.40;91.50
21805;DHT22;11064;47.102;15.452;2023-07-09T06:24:21;25.40;92.20
21805;DHT22;11064;47.102;15.452;2023-07-09T06:26:48;25.60;91.00
21805;DHT22;11064;47.102;15.452;2023-07-09T06:29:14;26.30;89.70
21805;DHT22;11064;47.102;15.452;2023-07-09T06:31:39;26.40;86.60
21805;DHT22;11064;47.102;15.452;2023-07-09T06:34:08;26.40;86.70
21805;DHT22;11064;47.102;15.452;2023-07-09T06:36:35;25.70;90.60
21805;DHT22;11064;47.102;15.452;2023-07-09T06:39:02;24.80;91.30
21805;DHT22;11064;47.102;15.452;2023-07-09T06:41:28;24.00;94.10
21805;DHT22;11064;47.102;15.452;2023-07-09T06:43:54;23.70;95.60
21805;DHT22;11064;47.102;15.452;2023-07-09T06:46:20;23.50;97.00
21805;DHT22;11064;47.102;15.452;2023-07-09T06:48:46;23.30;97.70
21805;DHT22;11064;47.102;15.452;2023-07-09T06:51:12;23.30;98.50
21805;DHT22;11064;47.102;15.452;2023-07-09T06:53:39;23.40;98.30
21805;DHT22;11064;47.102;15.452;2023-07-09T06:56:09;23.50;99.10
21805;DHT22;11064;47.102;15.452;2023-07-09T06:58:36;23.50;98.50
21805;DHT22;11064;47.102;15.452;2023-07-09T07:01:03;23.70;99.20
21805;DHT22;11064;47.102;15.452;2023-07-09T07:03:31;23.90;99.90
21805;DHT22;11064;47.102;15.452;2023-07-09T07:05:58;24.10;99.90
21805;DHT22;11064;47.102;15.452;2023-07-09T07:08:25;24.30;99.00
21805;DHT22;11064;47.102;15.452;2023-07-09T07:11:03;24.40;99.10
21805;DHT22;11064;47.102;15.452;2023-07-09T07:13:36;24.40;98.40
21805;DHT22;11064;47.102;15.452;2023-07-09T07:16:04;24.50;97.60
21805;DHT22;11064;47.102;15.452;2023-07-09T07:18:30;24.50;98.10
21805;DHT22;11064;47.102;15.452;2023-07-09T07:20:56;24.60;98.20
21805;DHT22;11064;47.102;15.452;2023-07-09T07:23:23;24.70;98.60
21805;DHT22;11064;47.102;15.452;2023-07-09T07:25:49;24.80;98.10
21805;DHT22;11064;47.102;15.452;2023-07-09T07:28:16;24.90;98.70
21805;DHT22;11064;47.102;15.452;2023-07-09T07:30:42;25.00;97.50
21805;DHT22;11064;47.102;15.452;2023-07-09T07:33:08;25.10;96.20
21805;DHT22;11064;47.102;15.452;2023-07-09T07:35:34;25.10;95.20
21805;DHT22;11064;47.102;15.452;2023-07-09T07:38:00;25.40;94.80
21805;DHT22;11064;47.102;15.452;2023-07-09T07:40:26;25.50;94.80
21805;DHT22;11064;47.102;15.452;2023-07-09T07:42:52;25.70;95.40
21805;DHT22;11064;47.102;15.452;2023-07-09T07:45:18;25.90;95.50
21805;DHT22;11064;47.102;15.452;2023-07-09T07:47:44;26.10;95.30
21805;DHT22;11064;47.102;15.452;2023-07-09T07:50:10;26.20;94.50
21805;DHT22;11064;47.102;15.452;2023-07-09T07:52:36;26.30;93.60
21805;DHT22;11064;47.102;15.452;2023-07-09T07:55:05;26.50;92.30
21805;DHT22;11064;47.102;15.452;2023-07-09T07:57:31;26.50;91.50
21805;DHT22;11064;47.102;15.452;2023-07-09T07:59:57;26.70;90.80
21805;DHT22;11064;47.102;15.452;2023-07-09T08:02:24;26.70;91.60
21805;DHT22;11064;47.102;15.452;2023-07-09T08:04:50;26.80;90.80
21805;DHT22;11064;47.102;15.452;2023-07-09T08:07:18;27.00;90.60
21805;DHT22;11064;47.102;15.452;2023-07-09T08:09:45;27.20;90.60
21805;DHT22;11064;47.102;15.452;2023-07-09T08:12:12;27.20;91.10
21805;DHT22;11064;47.102;15.452;2023-07-09T08:14:40;27.30;90.30
21805;DHT22;11064;47.102;15.452;2023-07-09T08:17:07;27.50;90.90
21805;DHT22;11064;47.102;15.452;2023-07-09T08:19:47;27.70;89.10
21805;DHT22;11064;47.102;15.452;2023-07-09T08:22:15;27.80;90.50
21805;DHT22;11064;47.102;15.452;2023-07-09T08:24:41;27.90;88.80
21805;DHT22;11064;47.102;15.452;2023-07-09T08:27:08;27.60;87.30
21805;DHT22;11064;47.102;15.452;2023-07-09T08:29:35;27.50;86.50
21805;DHT22;11064;47.102;15.452;2023-07-09T08:32:02;27.70;87.70
21805;DHT22;11064;47.102;15.452;2023-07-09T08:34:28;28.10;83.60
21805;DHT22;11064;47.102;15.452;2023-07-09T08:36:54;28.30;82.60
21805;DHT22;11064;47.102;15.452;2023-07-09T08:39:20;28.30;82.40
21805;DHT22;11064;47.102;15.452;2023-07-09T08:47:19;28.90;85.80
21805;DHT22;11064;47.102;15.452;2023-07-09T08:49:50;29.30;88.00
21805;DHT22;11064;47.102;15.452;2023-07-09T08:52:35;29.30;86.90
21805;DHT22;11064;47.102;15.452;2023-07-09T08:57:39;29.40;74.40
21805;DHT22;11064;47.102;15.452;2023-07-09T09:00:18;29.30;73.90
21805;DHT22;11064;47.102;15.452;2023-07-09T09:02:54;29.40;67.50
21805;DHT22;11064;47.102;15.452;2023-07-09T09:05:23;29.50;66.40
21805;DHT22;11064;47.102;15.452;2023-07-09T09:07:56;29.80;70.50
21805;DHT22;11064;47.102;15.452;2023-07-09T09:10:38;30.00;73.20
21805;DHT22;11064;47.102;15.452;2023-07-09T09:13:15;30.20;73.40
21805;DHT22;11064;47.102;15.452;2023-07-09T09:15:47;30.10;63.20
21805;DHT22;11064;47.102;15.452;2023-07-09T09:18:23;30.20;60.00
21805;DHT22;11064;47.102;15.452;2023-07-09T09:20:57;30.30;59.40
21805;DHT22;11064;47.102;15.452;2023-07-09T09:23:36;30.30;58.10
21805;DHT22;11064;47.102;15.452;2023-07-09T09:26:07;30.70;68.00
21805;DHT22;11064;47.102;15.452;2023-07-09T09:28:38;30.70;68.30
21805;DHT22;11064;47.102;15.452;2023-07-09T09:31:07;30.70;69.40
21805;DHT22;11064;47.102;15.452;2023-07-09T09:33:41;30.70;69.50
21805;DHT22;11064;47.102;15.452;2023-07-09T09:36:19;30.90;71.90
21805;DHT22;11064;47.102;15.452;2023-07-09T09:38:45;31.10;72.60
21805;DHT22;11064;47.102;15.452;2023-07-09T09:41:20;31.10;72.50
21805;DHT22;11064;47.102;15.452;2023-07-09T09:43:47;31.10;71.90
21805;DHT22;11064;47.102;15.452;2023-07-09T09:46:18;31.20;73.10
21805;DHT22;11064;47.102;15.452;2023-07-09T09:48:46;31.00;73.80
21805;DHT22;11064;47.102;15.452;2023-07-09T09:51:14;31.10;74.80
21805;DHT22;11064;47.102;15.452;2023-07-09T09:53:46;31.10;71.70
21805;DHT22;11064;47.102;15.452;2023-07-09T09:56:17;31.30;72.00
21805;DHT22;11064;47.102;15.452;2023-07-09T09:58:44;31.40;70.70
21805;DHT22;11064;47.102;15.452;2023-07-09T10:01:17;31.60;70.30
21805;DHT22;11064;47.102;15.452;2023-07-09T10:03:47;31.30;68.90
21805;DHT22;11064;47.102;15.452;2023-07-09T10:06:46;31.50;69.60
21805;DHT22;11064;47.102;15.452;2023-07-09T10:12:09;31.20;71.10
21805;DHT22;11064;47.102;15.452;2023-07-09T10:17:35;30.50;67.40
21805;DHT22;11064;47.102;15.452;2023-07-09T10:20:17;30.70;73.70
21805;DHT22;11064;47.102;15.452;2023-07-09T10:23:03;30.60;67.10
21805;DHT22;11064;47.102;15.452;2023-07-09T10:25:51;30.80;70.70
21805;DHT22;11064;47.102;15.452;2023-07-09T10:37:11;31.10;69.30
21805;DHT22;11064;47.102;15.452;2023-07-09T10:39:53;30.90;66.50
21805;DHT22;11064;47.102;15.452;2023-07-09T10:42:27;30.90;65.90
21805;DHT22;11064;47.102;15.452;2023-07-09T10:45:02;31.10;65.80
21805;DHT22;11064;47.102;15.452;2023-07-09T10:47:33;30.80;60.00
21805;DHT22;11064;47.102;15.452;2023-07-09T10:50:02;31.00;63.60
21805;DHT22;11064;47.102;15.452;2023-07-09T10:52:43;31.40;66.90
21805;DHT22;11064;47.102;15.452;2023-07-09T10:55:15;31.40;63.80
21805;DHT22;11064;47.102;15.452;2023-07-09T10:57:44;31.20;63.90
21805;DHT22;11064;47.102;15.452;2023-07-09T11:00:18;31.30;68.20
21805;DHT22;11064;47.102;15.452;2023-07-09T11:02:44;31.70;68.40
21805;DHT22;11064;47.102;15.452;2023-07-09T11:05:12;31.70;66.10
21805;DHT22;11064;47.102;15.452;2023-07-09T11:07:59;31.80;69.20
21805;DHT22;11064;47.102;15.452;2023-07-09T11:10:37;32.00;65.60
21805;DHT22;11064;47.102;15.452;2023-07-09T11:13:05;32.70;67.20
21805;DHT22;11064;47.102;15.452;2023-07-09T11:15:41;33.10;63.40
21805;DHT22;11064;47.102;15.452;2023-07-09T11:18:13;33.50;65.10
21805;DHT22;11064;47.102;15.452;2023-07-09T11:20:44;33.70;64.90
21805;DHT22;11064;47.102;15.452;2023-07-09T11:23:22;33.70;63.60
21805;DHT22;11064;47.102;15.452;2023-07-09T11:26:23;33.30;60.90
21805;DHT22;11064;47.102;15.452;2023-07-09T11:28:55;33.10;63.00
21805;DHT22;11064;47.102;15.452;2023-07-09T11:31:35;33.10;63.60
21805;DHT22;11064;47.102;15.452;2023-07-09T11:36:34;32.10;58.00
21805;DHT22;11064;47.102;15.452;2023-07-09T11:39:02;32.00;54.70
21805;DHT22;11064;47.102;15.452;2023-07-09T11:41:38;31.50;56.80
21805;DHT22;11064;47.102;15.452;2023-07-09T11:44:14;31.10;59.80
21805;DHT22;11064;47.102;15.452;2023-07-09T11:47:00;31.00;59.50
21805;DHT22;11064;47.102;15.452;2023-07-09T11:50:33;31.10;63.60
21805;DHT22;11064;47.102;15.452;2023-07-09T11:53:03;31.00;64.10
21805;DHT22;11064;47.102;15.452;2023-07-09T11:55:39;31.10;64.30
21805;DHT22;11064;47.102;15.452;2023-07-09T11:58:12;31.00;62.80
21805;DHT22;11064;47.102;15.452;2023-07-09T12:00:57;31.00;60.80
21805;DHT22;11064;47.102;15.452;2023-07-09T12:03:34;30.70;64.40
21805;DHT22;11064;47.102;15.452;2023-07-09T12:06:03;30.80;59.70
21805;DHT22;11064;47.102;15.452;2023-07-09T12:08:38;31.10;61.70
21805;DHT22;11064;47.102;15.452;2023-07-09T12:11:05;31.40;60.70
21805;DHT22;11064;47.102;15.452;2023-07-09T12:13:40;31.70;58.60
21805;DHT22;11064;47.102;15.452;2023-07-09T12:16:29;31.90;59.00
21805;DHT22;11064;47.102;15.452;2023-07-09T12:18:55;32.20;58.20
21805;DHT22;11064;47.102;15.452;2023-07-09T12:21:23;32.10;59.40
21805;DHT22;11064;47.102;15.452;2023-07-09T12:23:50;31.70;58.60
21805;DHT22;11064;47.102;15.452;2023-07-09T12:26:18;31.80;58.90
21805;DHT22;11064;47.102;15.452;2023-07-09T12:28:52;32.00;60.70
21805;DHT22;11064;47.102;15.452;2023-07-09T12:31:24;31.90;60.60
21805;DHT22;11064;47.102;15.452;2023-07-09T12:33:53;32.00;60.10
21805;DHT22;11064;47.102;15.452;2023-07-09T12:36:19;32.00;58.70
21805;DHT22;11064;47.102;15.452;2023-07-09T12:38:48;32.30;59.30
21805;DHT22;11064;47.102;15.452;2023-07-09T12:41:26;32.20;59.50
21805;DHT22;11064;47.102;15.452;2023-07-09T12:43:54;31.60;59.80
21805;DHT22;11064;47.102;15.452;2023-07-09T12:46:22;31.80;59.20
21805;DHT22;11064;47.102;15.452;2023-07-09T12:48:48;31.90;58.90
21805;DHT22;11064;47.102;15.452;2023-07-09T12:51:23;32.00;58.40
21805;DHT22;11064;47.102;15.452;2023-07-09T12:54:29;32.20;58.90
21805;DHT22;11064;47.102;15.452;2023-07-09T12:56:58;32.60;59.90
21805;DHT22;11064;47.102;15.452;2023-07-09T12:59:26;32.50;58.50
21805;DHT22;11064;47.102;15.452;2023-07-09T13:02:00;32.30;59.10
21805;DHT22;11064;47.102;15.452;2023-07-09T13:04:32;32.30;58.00
21805;DHT22;11064;47.102;15.452;2023-07-09T13:06:58;32.40;58.70
21805;DHT22;11064;47.102;15.452;2023-07-09T13:09:26;32.70;59.70
21805;DHT22;11064;47.102;15.452;2023-07-09T13:11:53;32.80;58.20
21805;DHT22;11064;47.102;15.452;2023-07-09T13:14:26;32.90;57.00
21805;DHT22;11064;47.102;15.452;2023-07-09T13:16:52;33.00;57.40
21805;DHT22;11064;47.102;15.452;2023-07-09T13:19:19;32.50;57.30
21805;DHT22;11064;47.102;15.452;2023-07-09T13:21:45;32.40;57.60
21805;DHT22;11064;47.102;15.452;2023-07-09T13:24:22;32.40;56.90
21805;DHT22;11064;47.102;15.452;2023-07-09T13:26:48;32.70;58.60
21805;DHT22;11064;47.102;15.452;2023-07-09T13:29:15;32.60;58.40
21805;DHT22;11064;47.102;15.452;2023-07-09T13:31:47;32.90;57.50
21805;DHT22;11064;47.102;15.452;2023-07-09T13:34:25;33.20;58.10
21805;DHT22;11064;47.102;15.452;2023-07-09T13:36:53;33.40;57.30
21805;DHT22;11064;47.102;15.452;2023-07-09T13:39:20;33.40;57.60
21805;DHT22;11064;47.102;15.452;2023-07-09T13:41:48;33.40;56.00
21805;DHT22;11064;47.102;15.452;2023-07-09T13:44:18;33.40;57.10
21805;DHT22;11064;47.102;15.452;2023-07-09T13:46:44;32.60;55.60
21805;DHT22;11064;47.102;15.452;2023-07-09T13:49:13;32.70;57.60
21805;DHT22;11064;47.102;15.452;2023-07-09T13:51:40;32.50;58.00
21805;DHT22;11064;47.102;15.452;2023-07-09T13:54:19;32.80;57.90
21805;DHT22;11064;47.102;15.452;2023-07-09T13:56:47;33.10;56.40
21805;DHT22;11064;47.102;15.452;2023-07-09T13:59:20;33.60;56.80
21805;DHT22;11064;47.102;15.452;2023-07-09T14:01:47;33.70;54.80
21805;DHT22;11064;47.102;15.452;2023-07-09T14:04:15;33.70;52.80
21805;DHT22;11064;47.102;15.452;2023-07-09T14:06:43;34.20;53.40
21805;DHT22;11064;47.102;15.452;2023-07-09T14:09:10;34.50;50.10
21805;DHT22;11064;47.102;15.452;2023-07-09T14:11:49;34.70;52.80
21805;DHT22;11064;47.102;15.452;2023-07-09T14:14:21;34.70;53.20
21805;DHT22;11064;47.102;15.452;2023-07-09T14:16:49;34.90;52.60
21805;DHT22;11064;47.102;15.452;2023-07-09T14:19:17;34.40;53.30
21805;DHT22;11064;47.102;15.452;2023-07-09T14:21:43;33.90;50.20
21805;DHT22;11064;47.102;15.452;2023-07-09T14:24:29;34.20;52.10
21805;DHT22;11064;47.102;15.452;2023-07-09T14:26:57;33.50;50.80
21805;DHT22;11064;47.102;15.452;2023-07-09T14:29:24;33.30;51.40
21805;DHT22;11064;47.102;15.452;2023-07-09T14:31:50;33.60;51.30
21805;DHT22;11064;47.102;15.452;2023-07-09T14:34:32;33.20;52.40
21805;DHT22;11064;47.102;15.452;2023-07-09T14:36:59;33.50;52.60
21805;DHT22;11064;47.102;15.452;2023-07-09T14:39:27;33.70;53.40
21805;DHT22;11064;47.102;15.452;2023-07-09T14:41:54;32.90;53.60
21805;DHT22;11064;47.102;15.452;2023-07-09T14:44:28;32.60;53.10
21805;DHT22;11064;47.102;15.452;2023-07-09T14:46:57;32.30;56.10
21805;DHT22;11064;47.102;15.452;2023-07-09T14:49:24;31.60;58.10
21805;DHT22;11064;47.102;15.452;2023-07-09T14:51:50;30.80;56.50
21805;DHT22;11064;47.102;15.452;2023-07-09T14:54:21;30.30;58.50
21805;DHT22;11064;47.102;15.452;2023-07-09T14:56:49;30.10;62.50
21805;DHT22;11064;47.102;15.452;2023-07-09T14:59:15;29.90;61.10
21805;DHT22;11064;47.102;15.452;2023-07-09T15:01:41;29.80;62.70
21805;DHT22;11064;47.102;15.452;2023-07-09T15:06:51;29.80;63.70
21805;DHT22;11064;47.102;15.452;2023-07-09T15:09:20;30.20;63.90
21805;DHT22;11064;47.102;15.452;2023-07-09T15:11:49;30.50;62.30
21805;DHT22;11064;47.102;15.452;2023-07-09T15:14:16;30.80;61.70
21805;DHT22;11064;47.102;15.452;2023-07-09T15:16:42;30.80;61.10
21805;DHT22;11064;47.102;15.452;2023-07-09T15:19:20;31.00;60.80
21805;DHT22;11064;47.102;15.452;2023-07-09T15:21:47;30.90;59.40
21805;DHT22;11064;47.102;15.452;2023-07-09T15:24:27;31.00;58.30
21805;DHT22;11064;47.102;15.452;2023-07-09T15:26:56;31.60;58.60
21805;DHT22;11064;47.102;15.452;2023-07-09T15:29:23;32.20;57.30
21805;DHT22;11064;47.102;15.452;2023-07-09T15:31:49;33.10;56.40
21805;DHT22;11064;47.102;15.452;2023-07-09T15:34:15;33.50;53.10
21805;DHT22;11064;47.102;15.452;2023-07-09T15:36:50;34.60;53.20
21805;DHT22;11064;47.102;15.452;2023-07-09T15:39:17;35.20;51.90
21805;DHT22;11064;47.102;15.452;2023-07-09T15:41:43;35.20;51.20
21805;DHT22;11064;47.102;15.452;2023-07-09T15:44:14;35.00;51.80
21805;DHT22;11064;47.102;15.452;2023-07-09T15:46:53;34.50;51.40
21805;DHT22;11064;47.102;15.452;2023-07-09T15:49:21;33.60;51.60
21805;DHT22;11064;47.102;15.452;2023-07-09T15:51:47;33.00;53.50
21805;DHT22;11064;47.102;15.452;2023-07-09T15:54:17;32.80;54.10
21805;DHT22;11064;47.102;15.452;2023-07-09T15:56:43;32.70;55.20
21805;DHT22;11064;47.102;15.452;2023-07-09T15:59:30;32.60;54.80
21805;DHT22;11064;47.102;15.452;2023-07-09T16:01:58;32.70;54.50
21805;DHT22;11064;47.102;15.452;2023-07-09T16:04:24;32.70;54.60
21805;DHT22;11064;47.102;15.452;2023-07-09T16:06:51;32.60;55.70
21805;DHT22;11064;47.102;15.452;2023-07-09T16:09:17;32.40;56.00
21805;DHT22;11064;47.102;15.452;2023-07-09T16:11:49;31.90;56.30
21805;DHT22;11064;47.102;15.452;2023-07-09T16:14:27;31.80;56.60
21805;DHT22;11064;47.102;15.452;2023-07-09T16:16:54;31.90;56.70
21805;DHT22;11064;47.102;15.452;2023-07-09T16:19:24;32.10;56.40
21805;DHT22;11064;47.102;15.452;2023-07-09T16:21:56;32.20;55.60
21805;DHT22;11064;47.102;15.452;2023-07-09T16:24:29;32.20;55.40
21805;DHT22;11064;47.102;15.452;2023-07-09T16:26:59;32.40;54.90
21805;DHT22;11064;47.102;15.452;2023-07-09T16:29:27;32.10;55.20
21805;DHT22;11064;47.102;15.452;2023-07-09T16:31:54;31.70;56.70
21805;DHT22;11064;47.102;15.452;2023-07-09T16:34:24;31.40;56.80
21805;DHT22;11064;47.102;15.452;2023-07-09T16:36:51;31.20;57.70
21805;DHT22;11064;47.102;15.452;2023-07-09T16:41:53;31.10;57.70
21805;DHT22;11064;47.102;15.452;2023-07-09T16:44:21;31.00;57.60
21805;DHT22;11064;47.102;15.452;2023-07-09T16:46:48;31.20;57.40
21805;DHT22;11064;47.102;15.452;2023-07-09T16:49:39;31.60;57.20
21805;DHT22;11064;47.102;15.452;2023-07-09T16:52:19;31.60;56.00
21805;DHT22;11064;47.102;15.452;2023-07-09T16:54:45;31.30;57.70
21805;DHT22;11064;47.102;15.452;2023-07-09T16:57:17;31.10;58.10
21805;DHT22;11064;47.102;15.452;2023-07-09T16:59:45;30.60;58.30
21805;DHT22;11064;47.102;15.452;2023-07-09T17:02:29;30.20;58.80
21805;DHT22;11064;47.102;15.452;2023-07-09T17:04:58;29.70;59.10
21805;DHT22;11064;47.102;15.452;2023-07-09T17:07:24;29.50;60.40
21805;DHT22;11064;47.102;15.452;2023-07-09T17:09:52;29.30;62.00
21805;DHT22;11064;47.102;15.452;2023-07-09T17:12:18;29.10;61.90
21805;DHT22;11064;47.102;15.452;2023-07-09T17:14:45;29.10;62.00
21805;DHT22;11064;47.102;15.452;2023-07-09T17:17:13;29.10;62.90
21805;DHT22;11064;47.102;15.452;2023-07-09T17:19:40;29.20;63.10
21805;DHT22;11064;47.102;15.452;2023-07-09T17:22:33;29.10;63.80
21805;DHT22;11064;47.102;15.452;2023-07-09T17:25:12;29.00;64.20
21805;DHT22;11064;47.102;15.452;2023-07-09T17:27:44;28.80;65.90
21805;DHT22;11064;47.102;15.452;2023-07-09T17:30:13;28.50;65.80
21805;DHT22;11064;47.102;15.452;2023-07-09T17:32:40;28.30;67.50
21805;DHT22;11064;47.102;15.452;2023-07-09T17:35:09;28.10;69.50
21805;DHT22;11064;47.102;15.452;2023-07-09T17:37:35;27.90;69.70
21805;DHT22;11064;47.102;15.452;2023-07-09T17:40:01;27.60;70.70
21805;DHT22;11064;47.102;15.452;2023-07-09T17:42:28;27.40;70.70
21805;DHT22;11064;47.102;15.452;2023-07-09T17:44:53;27.30;70.90
21805;DHT22;11064;47.102;15.452;2023-07-09T17:47:19;27.10;71.60
21805;DHT22;11064;47.102;15.452;2023-07-09T17:49:47;26.90;72.10
21805;DHT22;11064;47.102;15.452;2023-07-09T17:52:17;26.80;72.90
21805;DHT22;11064;47.102;15.452;2023-07-09T17:54:44;26.70;73.50
21805;DHT22;11064;47.102;15.452;2023-07-09T17:57:16;26.50;73.60
21805;DHT22;11064;47.102;15.452;2023-07-09T17:59:45;26.40;74.10
21805;DHT22;11064;47.102;15.452;2023-07-09T18:02:20;26.30;74.70
21805;DHT22;11064;47.102;15.452;2023-07-09T18:04:48;26.20;75.30
21805;DHT22;11064;47.102;15.452;2023-07-09T18:07:27;26.00;75.80
21805;DHT22;11064;47.102;15.452;2023-07-09T18:09:54;25.80;76.20
21805;DHT22;11064;47.102;15.452;2023-07-09T18:12:23;25.70;76.80
21805;DHT22;11064;47.102;15.452;2023-07-09T18:14:51;25.60;78.00
21805;DHT22;11064;47.102;15.452;2023-07-09T18:17:19;25.40;78.70
21805;DHT22;11064;47.102;15.452;2023-07-09T18:19:50;25.30;79.60
21805;DHT22;11064;47.102;15.452;2023-07-09T18:22:18;25.00;80.70
21805;DHT22;11064;47.102;15.452;2023-07-09T18:24:45;24.90;81.60
21805;DHT22;11064;47.102;15.452;2023-07-09T18:27:24;24.70;82.40
21805;DHT22;11064;47.102;15.452;2023-07-09T18:29:52;24.50;83.70
21805;DHT22;11064;47.102;15.452;2023-07-09T18:32:20;24.30;84.50
21805;DHT22;11064;47.102;15.452;2023-07-09T18:34:53;24.10;85.70
21805;DHT22;11064;47.102;15.452;2023-07-09T18:37:20;24.00;86.70
21805;DHT22;11064;47.102;15.452;2023-07-09T18:39:48;23.90;87.80
21805;DHT22;11064;47.102;15.452;2023-07-09T18:42:16;23.70;88.90
21805;DHT22;11064;47.102;15.452;2023-07-09T18:44:44;23.60;90.00
21805;DHT22;11064;47.102;15.452;2023-07-09T18:47:12;23.50;90.20
21805;DHT22;11064;47.102;15.452;2023-07-09T18:49:38;23.30;90.20
21805;DHT22;11064;47.102;15.452;2023-07-09T18:52:19;23.20;90.60
21805;DHT22;11064;47.102;15.452;2023-07-09T18:54:53;23.10;90.80
21805;DHT22;11064;47.102;15.452;2023-07-09T18:57:20;23.00;91.20
21805;DHT22;11064;47.102;15.452;2023-07-09T18:59:46;22.90;92.50
21805;DHT22;11064;47.102;15.452;2023-07-09T19:02:23;22.80;92.70
21805;DHT22;11064;47.102;15.452;2023-07-09T19:04:50;22.70;93.70
21805;DHT22;11064;47.102;15.452;2023-07-09T19:07:21;22.60;94.50
21805;DHT22;11064;47.102;15.452;2023-07-09T19:09:47;22.50;95.10
21805;DHT22;11064;47.102;15.452;2023-07-09T19:12:16;22.50;95.60
21805;DHT22;11064;47.102;15.452;2023-07-09T19:14:42;22.40;96.40
21805;DHT22;11064;47.102;15.452;2023-07-09T19:17:15;22.30;96.70
21805;DHT22;11064;47.102;15.452;2023-07-09T19:19:41;22.20;97.40
21805;DHT22;11064;47.102;15.452;2023-07-09T19:22:10;22.20;98.10
21805;DHT22;11064;47.102;15.452;2023-07-09T19:24:37;22.10;99.10
21805;DHT22;11064;47.102;15.452;2023-07-09T19:27:03;22.00;99.90
21805;DHT22;11064;47.102;15.452;2023-07-09T19:29:29;21.90;99.90
21805;DHT22;11064;47.102;15.452;2023-07-09T19:32:00;21.80;99.90
21805;DHT22;11064;47.102;15.452;2023-07-09T19:34:33;21.80;99.90
21805;DHT22;11064;47.102;15.452;2023-07-09T19:37:03;21.70;99.90
21805;DHT22;11064;47.102;15.452;2023-07-09T19:39:38;21.60;99.90
21805;DHT22;11064;47.102;15.452;2023-07-09T19:42:12;21.60;99.90
21805;DHT22;11064;47.102;15.452;2023-07-09T19:44:38;21.60;99.90
21805;DHT22;11064;47.102;15.452;2023-07-09T19:47:05;21.50;99.90
21805;DHT22;11064;47.102;15.452;2023-07-09T19:49:31;21.50;99.90
21805;DHT22;11064;47.102;15.452;2023-07-09T19:51:58;21.50;99.90
21805;DHT22;11064;47.102;15.452;2023-07-09T19:54:25;21.50;99.90
21805;DHT22;11064;47.102;15.452;2023-07-09T19:56:51;21.40;99.90
21805;DHT22;11064;47.102;15.452;2023-07-09T19:59:19;21.40;99.90
21805;DHT22;11064;47.102;15.452;2023-07-09T20:01:50;21.40;99.90
21805;DHT22;11064;47.102;15.452;2023-07-09T20:04:16;21.40;99.90
21805;DHT22;11064;47.102;15.452;2023-07-09T20:06:42;21.40;99.90
21805;DHT22;11064;47.102;15.452;2023-07-09T20:09:13;21.40;99.90
21805;DHT22;11064;47.102;15.452;2023-07-09T20:11:48;21.40;99.90
21805;DHT22;11064;47.102;15.452;2023-07-09T20:14:21;21.40;99.90
21805;DHT22;11064;47.102;15.452;2023-07-09T20:16:48;21.50;99.90
21805;DHT22;11064;47.102;15.452;2023-07-09T20:19:14;21.50;99.90
21805;DHT22;11064;47.102;15.452;2023-07-09T20:21:43;21.50;99.90
21805;DHT22;11064;47.102;15.452;2023-07-09T20:24:20;21.50;99.90
21805;DHT22;11064;47.102;15.452;2023-07-09T20:26:47;21.60;99.90
21805;DHT22;11064;47.102;15.452;2023-07-09T20:29:17;21.60;99.90
21805;DHT22;11064;47.102;15.452;2023-07-09T20:31:48;21.70;99.90
21805;DHT22;11064;47.102;15.452;2023-07-09T20:34:20;21.70;99.90
21805;DHT22;11064;47.102;15.452;2023-07-09T20:36:51;21.70;99.90
21805;DHT22;11064;47.102;15.452;2023-07-09T20:39:21;21.70;99.90
21805;DHT22;11064;47.102;15.452;2023-07-09T20:41:50;21.70;99.90
21805;DHT22;11064;47.102;15.452;2023-07-09T20:44:23;21.60;99.90
21805;DHT22;11064;47.102;15.452;2023-07-09T20:46:49;21.60;99.90
21805;DHT22;11064;47.102;15.452;2023-07-09T20:49:33;21.50;99.90
21805;DHT22;11064;47.102;15.452;2023-07-09T20:52:03;21.40;99.90
21805;DHT22;11064;47.102;15.452;2023-07-09T20:54:30;21.40;99.90
21805;DHT22;11064;47.102;15.452;2023-07-09T20:56:58;21.30;99.90
21805;DHT22;11064;47.102;15.452;2023-07-09T20:59:27;21.20;99.90
21805;DHT22;11064;47.102;15.452;2023-07-09T21:01:54;21.10;99.90
21805;DHT22;11064;47.102;15.452;2023-07-09T21:04:21;20.90;99.90
21805;DHT22;11064;47.102;15.452;2023-07-09T21:06:48;20.90;99.90